Terminal Aerodrome Forecast
Issued by NWS

Home | Current Version | Previous Version | Text Only | Print | Product List | Glossary On
Versions: 1 2 3 4 5 6 7 8 9 10 11 12 13 14 15 16
252
FTUS44 KLZK 111136
TAFHRO
TAF
KHRO 111136Z 1112/1212 16015G25KT P6SM BKN025 OVC035 WS020/20045KT
     FM111600 17015G30KT P6SM OVC025 WS020/20045KT
     FM120200 26009KT 5SM -RA BR OVC008
     FM120600 29010KT 4SM -RA BR OVC005=

USA.gov is the U.S. government's official web portal to all federal, state and local government web resources and services.